UBBN

Details ICAO UBBN (NAJ)
Name NAKHCHIVAN
Region Azerbiajan
Timezone Asia/Baku (UTC+4.0)
Plans Departing 27
Arriving 25
Stats Elevation 2,863 ft / 873 m (AMSL)
Location 39.187764° 45.457953°
Runways 2
Magnetic Variation 5.964° E
Sunrise 2018-05-23 01:40:21 UTC / 2018-05-23 05:40:21 Local
Sunset 2018-05-23 16:12:19 UTC / 2018-05-23 20:12:19 Local
Advertisement - Login to hide

Runways

ID Width Length Bearing (true) Bearing (mag) Surface Threshold Offset Overrun Length
14L 138 ft / 42 m 10,775 ft / 3,284 m 137.42° 131.46° Asphalt 0 ft / 0 m 229 ft / 70 m
14R 148 ft / 45 m 10,801 ft / 3,292 m 137.44° 131.48° Concrete 0 ft / 0 m 229 ft / 70 m
32L 148 ft / 45 m 10,801 ft / 3,292 m 317.46° 311.50° Concrete 375 ft / 114 m 229 ft / 70 m
32R 138 ft / 42 m 10,775 ft / 3,284 m 317.43° 311.47° Asphalt 1,000 ft / 305 m 229 ft / 70 m

Map

Weather


0- 5 10 15 20 25 30 35+ Temperature / ° C

Clouds and Precipitation
Forecast for 2018-05-23 06:00 UTC. Updated 14 minutes ago

Ground ~20,000 ft ~40,000 ft Winds

METAR

UBBN 230530Z 23004KT 9999 FEW050 SCT100 20/14 Q1020 R14R/CLRD// NOSIG RMK MT OP QFE690

TAF

Not found

Frequencies

Recorded 127.50 MHz ATIS
Approach 118.20 MHz APP
Tower 118.20 MHz TWR
Warning: Do not use this data for real-world aviation or navigation. No guarantee of current accuracy is given.